METAR Data
IDs: Format: Raw Decoded Include TAF

Data at: 0758 UTC 01 Aug 2021

KC09 010755Z AUTO 28006KT 5SM BR CLR 18/17 A2995 RMK AO2 T01760173